KDEN/DEN METAR and TAF weather

Enter ICAO airport designator
Station Type Date Time Source
KDEN METAR 2020/02/21 13:53 UTC NOAA

KDEN 211353Z 24012KT 10SM FEW220 M06/M16 A3027 RMK AO2 SLP295 T10561156


Station Type Date Time Source
KDEN Decoded METAR 2020/02/21 13:53 UTC NOAA

DENVER INTERNATIONAL AIRPORT, CO, United States (KDEN) 39-52N 104-40W 1640M
Feb 21, 2020 - 08:53 AM EST / 2020.02.21 1353 UTC
Wind: from the WSW (240 degrees) at 14 MPH (12 KT):0
Visibility: 10 mile(s):0
Sky conditions: mostly clear
Temperature: 21.9 F (-5.6 C)
Windchill: 8 F (-13 C):1
Dew Point: 3.9 F (-15.6 C)
Relative Humidity: 45%
Pressure (altimeter): 30.27 in. Hg (1025 hPa)
ob: KDEN 211353Z 24012KT 10SM FEW220 M06/M16 A3027 RMK AO2 SLP295 T10561156
cycle: 14

Station Type Date Time Source
KDEN TAF 2020/02/21 12:22 UTC NOAA

TAF KDEN 211120Z 2112/2218 23010KT P6SM SKC
FM211900 15006KT P6SM FEW250
FM220300 21010KT P6SM FEW250
FM221400 17008KT P6SM SCT250

Example: see airport list